createdAt,value
2023-02-02T00:01:25.019Z,98759.77
2023-02-02T00:01:59.056Z,98761.19
2023-02-02T00:02:33.045Z,98757.52
2023-02-02T00:03:06.247Z,98759.41
2023-02-02T00:03:39.949Z,98756.08
2023-02-02T00:04:18.645Z,98762.35
2023-02-02T00:04:51.866Z,98756.76
2023-02-02T00:06:04.180Z,98758.21
2023-02-02T00:06:37.109Z,98752.27
2023-02-02T00:07:10.005Z,98757.50
2023-02-02T00:07:43.082Z,98754.34
2023-02-02T00:08:18.633Z,98754.17
2023-02-02T00:09:31.291Z,98754.69
2023-02-02T00:10:04.502Z,98758.86
2023-02-02T00:11:10.543Z,98754.82
2023-02-02T00:11:44.177Z,98751.47
2023-02-02T00:12:58.179Z,98753.55
2023-02-02T00:13:31.246Z,98754.46
2023-02-02T00:15:49.090Z,98752.42
2023-02-02T00:18:21.444Z,98750.00
2023-02-02T00:18:59.237Z,98748.97
2023-02-02T00:19:32.613Z,98752.11
2023-02-02T00:22:01.195Z,98754.48
2023-02-02T00:23:13.288Z,98752.73
2023-02-02T00:25:02.144Z,98748.21
2023-02-02T00:26:08.799Z,98759.23
2023-02-02T00:26:42.835Z,98756.97
2023-02-02T00:27:49.262Z,98755.95
2023-02-02T00:28:22.451Z,98751.44
2023-02-02T00:30:12.462Z,98748.67
2023-02-02T00:33:48.790Z,98750.49
2023-02-02T00:34:22.168Z,98750.48
2023-02-02T00:36:45.336Z,98754.83
2023-02-02T00:37:19.014Z,98748.20
2023-02-02T00:37:52.192Z,98752.55
2023-02-02T00:38:25.331Z,98749.04
2023-02-02T00:38:58.550Z,98746.23
2023-02-02T00:40:37.979Z,98746.65
2023-02-02T00:42:22.529Z,98748.20
2023-02-02T00:44:26.953Z,98746.77
2023-02-02T00:45:18.872Z,98753.34
2023-02-02T00:46:30.441Z,98749.64
2023-02-02T00:47:03.924Z,98753.27
2023-02-02T00:51:11.019Z,98753.17
2023-02-02T00:53:32.842Z,98752.14
2023-02-02T00:54:06.225Z,98749.84
2023-02-02T00:54:39.507Z,98752.42
2023-02-02T00:55:50.587Z,98752.34
2023-02-02T00:57:01.983Z,98748.09
2023-02-02T00:57:35.132Z,98751.19
2023-02-02T00:58:08.311Z,98749.44
2023-02-02T00:58:41.331Z,98754.12
2023-02-02T00:59:52.657Z,98749.98
2023-02-02T01:01:04.481Z,98750.24
2023-02-02T01:02:11.536Z,98749.86
2023-02-02T01:02:44.794Z,98749.28
2023-02-02T01:03:18.164Z,98750.48
2023-02-02T01:05:03.545Z,98748.16
2023-02-02T01:06:52.496Z,98751.27
2023-02-02T01:08:41.344Z,98751.54
2023-02-02T01:09:52.202Z,98752.84
2023-02-02T01:10:25.207Z,98751.97
2023-02-02T01:11:00.091Z,98746.73
2023-02-02T01:12:10.861Z,98746.38
2023-02-02T01:13:21.917Z,98743.34
2023-02-02T01:14:32.572Z,98742.62
2023-02-02T01:15:06.267Z,98744.02
2023-02-02T01:15:39.235Z,98744.71
2023-02-02T01:16:50.207Z,98745.56
2023-02-02T01:18:01.165Z,98739.08
2023-02-02T01:19:53.392Z,98739.58
2023-02-02T01:21:09.374Z,98744.96
2023-02-02T01:21:43.080Z,98742.13
2023-02-02T01:22:16.040Z,98739.50
2023-02-02T01:22:49.280Z,98747.73
2023-02-02T01:23:22.291Z,98750.88
2023-02-02T01:23:55.263Z,98746.88
2023-02-02T01:24:28.441Z,98745.15
2023-02-02T01:25:02.896Z,98741.11
2023-02-02T01:25:38.644Z,98742.67
2023-02-02T01:26:50.152Z,98743.54
2023-02-02T01:28:01.025Z,98744.76
2023-02-02T01:29:12.395Z,98740.02
2023-02-02T01:30:23.156Z,98742.00
2023-02-02T01:31:34.477Z,98741.15
2023-02-02T01:34:00.947Z,98740.49
2023-02-02T01:35:11.821Z,98743.63
2023-02-02T01:35:49.099Z,98745.02
2023-02-02T01:36:23.199Z,98742.94
2023-02-02T01:38:12.048Z,98745.06
2023-02-02T01:40:01.123Z,98743.64
2023-02-02T01:41:16.972Z,98743.27
2023-02-02T01:41:49.956Z,98739.95
2023-02-02T01:42:23.439Z,98742.73
2023-02-02T01:43:43.330Z,98739.54
2023-02-02T01:44:54.482Z,98737.63
2023-02-02T01:45:30.533Z,98737.65
2023-02-02T01:47:20.202Z,98739.08
2023-02-02T01:54:36.094Z,98743.11
2023-02-02T01:55:10.729Z,98740.52
2023-02-02T01:56:28.039Z,98745.30
2023-02-02T01:57:46.682Z,98738.89
2023-02-02T01:58:26.288Z,98734.20
2023-02-02T01:58:59.109Z,98736.66
2023-02-02T01:59:32.162Z,98734.58
2023-02-02T02:00:46.999Z,98735.59
2023-02-02T02:01:20.153Z,98737.39
2023-02-02T02:01:53.184Z,98744.79
2023-02-02T02:03:09.241Z,98734.56
2023-02-02T02:03:42.317Z,98737.23
2023-02-02T02:05:35.431Z,98743.48
2023-02-02T02:06:13.255Z,98738.13
2023-02-02T02:07:24.120Z,98741.39
2023-02-02T02:08:02.520Z,98738.66
2023-02-02T02:08:40.434Z,98743.23
2023-02-02T02:09:51.120Z,98740.90
2023-02-02T02:11:01.722Z,98742.65
2023-02-02T02:13:50.480Z,98747.48
2023-02-02T02:14:42.089Z,98747.39
2023-02-02T02:15:34.318Z,98745.01
2023-02-02T02:16:20.668Z,98749.07
2023-02-02T02:17:28.052Z,98751.32
2023-02-02T02:19:15.700Z,98747.96
2023-02-02T02:20:26.557Z,98750.27
2023-02-02T02:21:30.256Z,98756.10
2023-02-02T02:22:26.979Z,98753.90
2023-02-02T02:24:00.267Z,98752.77
2023-02-02T02:25:01.504Z,98755.45
2023-02-02T02:25:59.873Z,98752.50
2023-02-02T02:26:53.964Z,98753.75
2023-02-02T02:27:39.199Z,98753.95
2023-02-02T02:28:30.911Z,98754.22
2023-02-02T02:29:04.190Z,98749.91
2023-02-02T02:29:37.380Z,98747.66
2023-02-02T02:31:26.296Z,98744.38
2023-02-02T02:32:08.034Z,98750.33
2023-02-02T02:32:57.663Z,98748.78
2023-02-02T02:33:39.955Z,98741.46
2023-02-02T02:35:30.854Z,98743.45
2023-02-02T02:36:11.712Z,98744.55
2023-02-02T02:37:08.957Z,98747.17
2023-02-02T02:37:41.936Z,98744.96
2023-02-02T02:38:30.875Z,98745.52
2023-02-02T02:40:56.909Z,98740.48
2023-02-02T02:42:56.876Z,98744.21
2023-02-02T02:43:32.323Z,98743.32
2023-02-02T02:44:07.940Z,98743.30
2023-02-02T02:44:40.850Z,98741.50
2023-02-02T02:45:51.960Z,98740.25
2023-02-02T02:47:03.400Z,98740.20
2023-02-02T02:47:37.492Z,98744.19
2023-02-02T02:48:10.653Z,98745.06
2023-02-02T02:49:23.062Z,98744.32
2023-02-02T02:49:56.037Z,98746.77
2023-02-02T02:50:28.879Z,98740.96
2023-02-02T02:51:09.203Z,98742.66
2023-02-02T02:52:31.278Z,98742.13
2023-02-02T02:53:06.572Z,98744.06
2023-02-02T02:53:39.576Z,98745.08
2023-02-02T02:54:18.183Z,98742.60
2023-02-02T02:55:37.132Z,98744.02
2023-02-02T02:56:18.913Z,98742.45
2023-02-02T02:57:24.038Z,98741.06
2023-02-02T02:58:57.943Z,98744.11
2023-02-02T02:59:53.386Z,98744.13
2023-02-02T03:00:36.653Z,98738.73
2023-02-02T03:01:21.338Z,98742.09
2023-02-02T03:02:06.867Z,98739.84
2023-02-02T03:03:18.654Z,98741.95
2023-02-02T03:04:02.171Z,98739.54
2023-02-02T03:04:49.172Z,98737.98
2023-02-02T03:05:40.996Z,98739.58
2023-02-02T03:07:38.849Z,98740.89
2023-02-02T03:08:13.851Z,98735.02
2023-02-02T03:08:50.942Z,98737.47
2023-02-02T03:09:25.935Z,98738.15
2023-02-02T03:09:58.935Z,98738.27
2023-02-02T03:11:10.921Z,98738.88
2023-02-02T03:12:59.465Z,98741.73
2023-02-02T03:14:10.636Z,98745.34
2023-02-02T03:15:21.395Z,98743.66
2023-02-02T03:16:32.367Z,98743.95
2023-02-02T03:19:00.737Z,98746.63
2023-02-02T03:19:33.812Z,98747.63
2023-02-02T03:20:07.294Z,98745.67
2023-02-02T03:21:18.248Z,98744.33
2023-02-02T03:22:29.118Z,98742.88
2023-02-02T03:23:40.082Z,98745.76
2023-02-02T03:24:50.788Z,98746.22
2023-02-02T03:26:01.903Z,98749.27
2023-02-02T03:27:12.773Z,98746.40
2023-02-02T03:29:01.619Z,98745.27
2023-02-02T03:29:34.696Z,98745.56
2023-02-02T03:30:12.241Z,98744.13
2023-02-02T03:30:45.260Z,98746.52
2023-02-02T03:31:18.468Z,98746.44
2023-02-02T03:31:51.613Z,98744.84
2023-02-02T03:33:02.299Z,98744.41
2023-02-02T03:33:36.051Z,98741.58
2023-02-02T03:34:46.713Z,98743.26
2023-02-02T03:35:58.823Z,98746.53
2023-02-02T03:36:31.892Z,98746.01
2023-02-02T03:38:58.416Z,98744.77
2023-02-02T03:40:10.089Z,98744.21
2023-02-02T03:41:20.847Z,98742.41
2023-02-02T03:42:31.714Z,98745.20
2023-02-02T03:43:42.776Z,98746.95
2023-02-02T03:44:53.464Z,98746.27
2023-02-02T03:45:29.385Z,98749.77
2023-02-02T03:46:42.268Z,98747.70
2023-02-02T03:47:15.358Z,98746.09
2023-02-02T03:47:48.330Z,98744.65
2023-02-02T03:48:58.988Z,98745.13
2023-02-02T03:50:10.874Z,98744.26
2023-02-02T03:51:21.937Z,98748.44
2023-02-02T03:53:48.274Z,98744.29
2023-02-02T03:54:21.446Z,98747.64
2023-02-02T03:55:32.306Z,98747.64
2023-02-02T03:56:05.808Z,98745.89
2023-02-02T03:56:38.871Z,98747.30
2023-02-02T03:57:50.145Z,98745.04
2023-02-02T03:59:00.908Z,98745.46
2023-02-02T04:00:12.373Z,98747.88
2023-02-02T04:01:27.994Z,98749.60
2023-02-02T04:02:38.921Z,98744.01
2023-02-02T04:03:50.492Z,98752.16
2023-02-02T04:04:23.562Z,98747.42
2023-02-02T04:04:56.431Z,98747.21
2023-02-02T04:05:29.512Z,98749.80
2023-02-02T04:07:18.153Z,98750.20
2023-02-02T04:08:28.917Z,98743.55
2023-02-02T04:09:39.775Z,98739.84
2023-02-02T04:10:50.486Z,98744.36
2023-02-02T04:12:01.280Z,98743.81
2023-02-02T04:12:34.161Z,98739.08
2023-02-02T04:13:07.144Z,98742.58
2023-02-02T04:14:18.927Z,98740.81
2023-02-02T04:15:29.541Z,98740.77
2023-02-02T04:17:17.937Z,98735.80
2023-02-02T04:18:29.002Z,98735.57
2023-02-02T04:19:01.954Z,98734.84
2023-02-02T04:21:28.281Z,98733.15
2023-02-02T04:22:38.938Z,98735.41
2023-02-02T04:23:50.003Z,98734.71
2023-02-02T04:25:00.995Z,98735.77
2023-02-02T04:26:49.593Z,98730.69
2023-02-02T04:27:22.690Z,98733.85
2023-02-02T04:29:11.239Z,98729.59
2023-02-02T04:30:22.001Z,98730.09
2023-02-02T04:31:33.126Z,98731.98
2023-02-02T04:32:06.346Z,98732.70
2023-02-02T04:32:39.414Z,98732.29
2023-02-02T04:33:50.276Z,98728.36
2023-02-02T04:35:01.142Z,98733.59
2023-02-02T04:36:12.006Z,98732.49
2023-02-02T04:38:38.839Z,98741.73
2023-02-02T04:39:12.223Z,98740.52
2023-02-02T04:40:23.294Z,98741.23
2023-02-02T04:40:56.184Z,98739.33
2023-02-02T04:41:29.345Z,98743.17
2023-02-02T04:42:40.806Z,98742.46
2023-02-02T04:44:29.668Z,98740.00
2023-02-02T04:45:40.661Z,98747.52
2023-02-02T04:46:51.799Z,98739.08
2023-02-02T04:47:24.870Z,98738.52
2023-02-02T04:47:57.855Z,98743.02
2023-02-02T04:48:31.125Z,98744.92
2023-02-02T04:49:41.747Z,98744.67
2023-02-02T04:50:58.787Z,98745.31
2023-02-02T04:51:31.759Z,98749.34
2023-02-02T04:52:42.948Z,98753.77
2023-02-02T04:53:53.585Z,98744.83
2023-02-02T04:54:26.660Z,98747.63
2023-02-02T04:54:59.532Z,98741.82
2023-02-02T04:55:36.618Z,98742.34
2023-02-02T04:56:52.585Z,98750.04
2023-02-02T04:57:25.517Z,98747.27
2023-02-02T04:57:58.424Z,98748.13
2023-02-02T04:58:31.393Z,98751.07
2023-02-02T05:00:58.166Z,98753.66
2023-02-02T05:01:31.319Z,98757.52
2023-02-02T05:03:20.373Z,98752.04
2023-02-02T05:04:31.376Z,98755.29
2023-02-02T05:05:05.207Z,98753.70
2023-02-02T05:05:38.301Z,98752.62
2023-02-02T05:06:49.291Z,98753.66
2023-02-02T05:08:32.912Z,98758.20
2023-02-02T05:09:43.755Z,98758.23
2023-02-02T05:10:17.139Z,98757.20
2023-02-02T05:10:50.463Z,98757.21
2023-02-02T05:11:23.578Z,98759.29
2023-02-02T05:11:56.466Z,98762.63
2023-02-02T05:12:29.541Z,98763.84
2023-02-02T05:13:02.447Z,98761.37
2023-02-02T05:14:13.375Z,98764.29
2023-02-02T05:14:46.258Z,98759.20
2023-02-02T05:15:19.218Z,98762.33
2023-02-02T05:16:31.471Z,98765.42
2023-02-02T05:18:20.059Z,98769.63
2023-02-02T05:19:32.559Z,98776.64
2023-02-02T05:20:05.918Z,98775.77
2023-02-02T05:20:38.914Z,98770.88
2023-02-02T05:21:51.294Z,98773.33
2023-02-02T05:22:24.493Z,98774.73
2023-02-02T05:22:57.561Z,98778.39
2023-02-02T05:24:09.244Z,98776.85
2023-02-02T05:25:57.822Z,98778.55
2023-02-02T05:27:08.655Z,98775.30
2023-02-02T05:29:00.182Z,98784.05
2023-02-02T05:30:12.388Z,98784.73
2023-02-02T05:31:23.331Z,98784.66
2023-02-02T05:31:56.820Z,98787.98
2023-02-02T05:32:29.986Z,98784.10
2023-02-02T05:33:40.881Z,98789.34
2023-02-02T05:35:29.696Z,98782.16
2023-02-02T05:36:02.597Z,98783.92
2023-02-02T05:37:51.006Z,98781.16
2023-02-02T05:38:23.978Z,98783.45
2023-02-02T05:38:57.186Z,98782.37
2023-02-02T05:39:30.137Z,98784.84
2023-02-02T05:41:19.705Z,98786.05
2023-02-02T05:41:52.615Z,98785.88
2023-02-02T05:43:03.429Z,98786.67
2023-02-02T05:43:36.424Z,98790.88
2023-02-02T05:44:10.572Z,98786.31
2023-02-02T05:45:22.290Z,98791.34
2023-02-02T05:46:33.359Z,98790.42
2023-02-02T05:47:06.324Z,98790.06
2023-02-02T05:47:39.283Z,98794.23
2023-02-02T05:48:52.308Z,98795.63
2023-02-02T05:50:03.690Z,98797.91
2023-02-02T05:50:36.758Z,98796.16
2023-02-02T05:51:17.092Z,98798.11
2023-02-02T05:52:30.120Z,98798.15
2023-02-02T05:54:58.600Z,98796.88
2023-02-02T05:55:31.478Z,98798.29
2023-02-02T05:57:20.536Z,98797.71
2023-02-02T05:58:31.383Z,98800.59
2023-02-02T05:59:07.733Z,98802.14
2023-02-02T05:59:40.639Z,98801.08
2023-02-02T06:00:53.473Z,98800.67
2023-02-02T06:01:28.001Z,98803.48
2023-02-02T06:02:38.905Z,98804.67
2023-02-02T06:03:50.965Z,98804.48
2023-02-02T06:04:24.065Z,98808.00
2023-02-02T06:04:57.040Z,98807.13
2023-02-02T06:06:08.005Z,98809.23
2023-02-02T06:06:41.629Z,98805.89
2023-02-02T06:08:30.427Z,98809.16
2023-02-02T06:09:42.002Z,98815.96
2023-02-02T06:12:09.933Z,98813.74
2023-02-02T06:12:44.387Z,98814.77
2023-02-02T06:13:17.325Z,98814.55
2023-02-02T06:13:50.531Z,98815.42
2023-02-02T06:16:17.379Z,98816.10
2023-02-02T06:17:28.143Z,98818.06
2023-02-02T06:18:01.340Z,98816.50
2023-02-02T06:19:50.977Z,98815.65
2023-02-02T06:22:17.721Z,98813.77
2023-02-02T06:23:28.824Z,98816.22
2023-02-02T06:24:40.258Z,98816.95
2023-02-02T06:25:51.016Z,98815.19
2023-02-02T06:26:58.067Z,98813.42
2023-02-02T06:28:52.577Z,98817.81
2023-02-02T06:30:43.871Z,98819.91
2023-02-02T06:33:17.495Z,98820.16
2023-02-02T06:35:11.865Z,98821.29
2023-02-02T06:36:23.445Z,98822.52
2023-02-02T06:36:56.521Z,98827.65
2023-02-02T06:37:30.846Z,98824.17
2023-02-02T06:38:04.027Z,98825.23
2023-02-02T06:38:37.087Z,98822.06
2023-02-02T06:40:27.489Z,98828.51
2023-02-02T06:41:01.050Z,98828.52
2023-02-02T06:42:21.274Z,98829.45
2023-02-02T06:42:58.783Z,98825.27
2023-02-02T06:43:31.689Z,98825.45
2023-02-02T06:44:04.525Z,98827.05
2023-02-02T06:44:37.532Z,98827.59
2023-02-02T06:45:11.033Z,98826.85
2023-02-02T06:46:21.850Z,98826.89
2023-02-02T06:50:06.235Z,98829.54
2023-02-02T06:50:39.304Z,98833.36
2023-02-02T06:51:50.472Z,98827.05
2023-02-02T06:53:01.435Z,98831.59
2023-02-02T06:55:28.485Z,98831.88
2023-02-02T06:56:03.659Z,98833.13
2023-02-02T06:56:36.682Z,98826.12
2023-02-02T06:57:09.863Z,98828.40
2023-02-02T06:58:20.721Z,98835.95
2023-02-02T06:58:53.795Z,98829.84
2023-02-02T06:59:26.668Z,98836.52
2023-02-02T07:00:38.387Z,98833.89
2023-02-02T07:01:50.610Z,98835.48
2023-02-02T07:03:40.036Z,98843.72
2023-02-02T07:04:13.183Z,98840.73
2023-02-02T07:04:46.147Z,98841.99
2023-02-02T07:05:24.628Z,98842.02
2023-02-02T07:05:58.047Z,98842.73
2023-02-02T07:07:08.909Z,98844.98
2023-02-02T07:09:01.919Z,98844.42
2023-02-02T07:11:11.025Z,98847.38
2023-02-02T07:13:40.175Z,98848.98
2023-02-02T07:14:51.138Z,98858.42
2023-02-02T07:17:19.696Z,98850.73
2023-02-02T07:17:54.854Z,98853.03
2023-02-02T07:18:27.939Z,98856.14
2023-02-02T07:19:39.295Z,98859.76
2023-02-02T07:20:50.343Z,98856.75
2023-02-02T07:21:24.893Z,98859.89
2023-02-02T07:21:57.942Z,98856.93
2023-02-02T07:22:30.850Z,98860.40
2023-02-02T07:23:42.597Z,98857.91
2023-02-02T07:24:15.568Z,98857.88
2023-02-02T07:24:48.490Z,98859.59
2023-02-02T07:26:07.068Z,98859.89
2023-02-02T07:26:40.202Z,98860.20
2023-02-02T07:27:13.838Z,98860.53
2023-02-02T07:27:49.693Z,98868.55
2023-02-02T07:29:03.115Z,98864.64
2023-02-02T07:29:36.187Z,98865.33
2023-02-02T07:30:10.246Z,98860.80
2023-02-02T07:31:22.970Z,98868.08
2023-02-02T07:31:55.969Z,98867.88
2023-02-02T07:32:29.240Z,98865.80
2023-02-02T07:33:02.218Z,98867.17
2023-02-02T07:33:38.880Z,98866.63
2023-02-02T07:34:49.735Z,98866.94
2023-02-02T07:35:23.083Z,98868.33
2023-02-02T07:35:56.355Z,98865.30
2023-02-02T07:36:29.341Z,98868.79
2023-02-02T07:37:40.185Z,98868.23
2023-02-02T07:38:54.093Z,98873.48
2023-02-02T07:39:27.036Z,98880.13
2023-02-02T07:39:59.907Z,98876.46
2023-02-02T07:41:10.573Z,98875.34
2023-02-02T07:43:39.152Z,98883.32
2023-02-02T07:44:17.956Z,98883.67
2023-02-02T07:45:29.235Z,98892.55
2023-02-02T07:46:42.100Z,98890.75
2023-02-02T07:47:57.470Z,98904.70
2023-02-02T07:48:30.996Z,98893.83
2023-02-02T07:49:03.843Z,98895.76
2023-02-02T07:49:36.796Z,98898.36
2023-02-02T07:50:10.526Z,98897.63
2023-02-02T07:51:59.474Z,98898.48
2023-02-02T07:53:10.333Z,98901.61
2023-02-02T07:53:47.530Z,98903.02
2023-02-02T07:55:12.775Z,98912.21
2023-02-02T07:55:47.638Z,98911.19
2023-02-02T07:56:22.623Z,98910.48
2023-02-02T07:56:55.492Z,98908.05
2023-02-02T07:57:28.382Z,98909.07
2023-02-02T07:58:01.970Z,98906.39
2023-02-02T07:59:50.720Z,98912.02
2023-02-02T08:00:25.085Z,98910.77
2023-02-02T08:01:02.541Z,98907.73
2023-02-02T08:02:13.363Z,98913.92
2023-02-02T08:02:49.266Z,98911.76
2023-02-02T08:03:22.318Z,98912.92
2023-02-02T08:03:56.333Z,98920.25
2023-02-02T08:04:29.455Z,98914.72
2023-02-02T08:05:02.529Z,98915.70
2023-02-02T08:06:16.057Z,98913.73
2023-02-02T08:06:49.026Z,98919.20
2023-02-02T08:08:02.603Z,98919.96
2023-02-02T08:10:29.903Z,98922.23
2023-02-02T08:11:40.766Z,98925.17
2023-02-02T08:12:51.835Z,98923.56
2023-02-02T08:14:40.577Z,98924.66
2023-02-02T08:15:51.365Z,98917.44
2023-02-02T08:16:24.866Z,98923.81
2023-02-02T08:16:57.898Z,98926.13
2023-02-02T08:17:30.795Z,98920.27
2023-02-02T08:19:20.383Z,98924.40
2023-02-02T08:20:31.098Z,98920.21
2023-02-02T08:21:42.837Z,98924.02
2023-02-02T08:24:09.412Z,98927.70
2023-02-02T08:25:20.992Z,98929.38
2023-02-02T08:27:10.114Z,98936.77
2023-02-02T08:28:20.912Z,98935.42
2023-02-02T08:29:01.986Z,98936.17
2023-02-02T08:29:36.385Z,98936.66
2023-02-02T08:30:10.388Z,98936.44
2023-02-02T08:30:43.367Z,98934.04
2023-02-02T08:31:27.651Z,98929.74
2023-02-02T08:32:00.967Z,98940.89
2023-02-02T08:32:34.042Z,98942.59
2023-02-02T08:33:07.017Z,98939.86
2023-02-02T08:33:39.929Z,98944.51
2023-02-02T08:35:29.975Z,98943.63
2023-02-02T08:36:42.364Z,98949.29
2023-02-02T08:38:31.016Z,98950.70
2023-02-02T08:39:06.747Z,98949.27
2023-02-02T08:40:18.068Z,98952.70
2023-02-02T08:40:51.341Z,98956.53
2023-02-02T08:41:24.463Z,98956.65
2023-02-02T08:41:57.801Z,98956.91
2023-02-02T08:43:08.821Z,98959.70
2023-02-02T08:46:02.840Z,98960.91
2023-02-02T08:46:31.095Z,98966.17
2023-02-02T08:47:42.143Z,98965.48
2023-02-02T08:48:17.367Z,98962.80
2023-02-02T08:48:50.474Z,98966.65
2023-02-02T08:51:18.809Z,98967.21
2023-02-02T08:51:51.987Z,98970.31
2023-02-02T08:52:57.829Z,98969.02
2023-02-02T08:53:31.006Z,98971.65
2023-02-02T08:54:42.071Z,98973.34
2023-02-02T08:55:16.068Z,98973.12
2023-02-02T08:55:49.454Z,98973.29
2023-02-02T08:57:00.533Z,98971.48
2023-02-02T08:59:30.233Z,98976.89
2023-02-02T09:00:05.321Z,98983.33
2023-02-02T09:00:38.325Z,98982.73
2023-02-02T09:01:28.499Z,98985.12
2023-02-02T09:02:01.542Z,98978.39
2023-02-02T09:03:12.960Z,98984.38
2023-02-02T09:03:46.240Z,98989.37
2023-02-02T09:04:19.413Z,98992.64
2023-02-02T09:06:10.408Z,98996.69
2023-02-02T09:07:21.474Z,98995.96
2023-02-02T09:08:33.777Z,98998.86
2023-02-02T09:09:08.563Z,98996.16
2023-02-02T09:09:41.558Z,98992.23
2023-02-02T09:10:14.632Z,98998.55
2023-02-02T09:10:47.523Z,98998.89
2023-02-02T09:11:58.467Z,99001.37
2023-02-02T09:12:31.367Z,99004.34
2023-02-02T09:14:20.598Z,99005.94
2023-02-02T09:16:10.329Z,99011.33
2023-02-02T09:17:21.130Z,99014.52
2023-02-02T09:19:11.007Z,99020.50
2023-02-02T09:19:43.841Z,99020.20
2023-02-02T09:20:17.877Z,99022.33
2023-02-02T09:20:51.563Z,99029.72
2023-02-02T09:22:40.895Z,99024.95
2023-02-02T09:23:13.804Z,99028.67
2023-02-02T09:23:47.387Z,99030.60
2023-02-02T09:24:20.487Z,99031.32
2023-02-02T09:26:53.216Z,99038.33
2023-02-02T09:27:26.213Z,99039.73
2023-02-02T09:27:59.196Z,99043.59
2023-02-02T09:29:14.064Z,99042.23
2023-02-02T09:29:47.272Z,99045.54
2023-02-02T09:30:20.730Z,99047.98
2023-02-02T09:32:50.209Z,99052.20
2023-02-02T09:33:23.085Z,99056.63
2023-02-02T09:33:56.058Z,99054.93
2023-02-02T09:34:29.435Z,99055.52
2023-02-02T09:35:39.976Z,99061.91
2023-02-02T09:36:13.883Z,99057.36
2023-02-02T09:36:47.680Z,99060.73
2023-02-02T09:37:20.649Z,99065.31
2023-02-02T09:37:53.526Z,99064.30
2023-02-02T09:38:26.390Z,99069.43
2023-02-02T09:38:59.355Z,99071.77
2023-02-02T09:40:17.846Z,99074.31
2023-02-02T09:40:50.978Z,99075.77
2023-02-02T09:42:52.446Z,99079.85
2023-02-02T09:43:31.544Z,99084.16
2023-02-02T09:44:30.546Z,99084.77
2023-02-02T09:45:18.406Z,99088.03
2023-02-02T09:46:19.641Z,99091.15
2023-02-02T09:47:22.455Z,99091.75
2023-02-02T09:47:58.646Z,99094.59
2023-02-02T09:48:40.894Z,99097.54
2023-02-02T09:49:16.875Z,99096.83
2023-02-02T09:50:14.079Z,99096.27
2023-02-02T09:51:31.198Z,99101.15
2023-02-02T09:52:10.309Z,99102.14
2023-02-02T09:53:17.477Z,99105.21
2023-02-02T09:53:59.359Z,99106.29
2023-02-02T09:55:35.216Z,99106.66
2023-02-02T09:56:11.764Z,99107.10
2023-02-02T09:56:46.784Z,99109.31
2023-02-02T09:58:22.223Z,99112.57
2023-02-02T09:58:56.012Z,99115.19
2023-02-02T09:59:34.927Z,99114.65
2023-02-02T10:00:17.011Z,99114.81
2023-02-02T10:01:31.819Z,99121.67
2023-02-02T10:02:17.536Z,99117.67
2023-02-02T10:03:34.045Z,99117.95
2023-02-02T10:04:14.025Z,99118.16
2023-02-02T10:04:49.398Z,99125.58
2023-02-02T10:07:31.312Z,99133.83
2023-02-02T10:08:05.524Z,99134.79
2023-02-02T10:08:46.453Z,99131.70
2023-02-02T10:09:43.671Z,99138.21
2023-02-02T10:10:20.714Z,99142.69
2023-02-02T10:11:49.243Z,99140.83
2023-02-02T10:14:02.668Z,99146.15
2023-02-02T10:14:39.664Z,99142.65
2023-02-02T10:15:20.579Z,99145.29
2023-02-02T10:16:03.832Z,99150.21
2023-02-02T10:16:36.884Z,99142.75
2023-02-02T10:17:21.935Z,99144.89
2023-02-02T10:18:59.731Z,99149.30
2023-02-02T10:20:17.041Z,99150.95
2023-02-02T10:20:56.875Z,99151.14
2023-02-02T10:21:34.970Z,99149.59
2023-02-02T10:22:28.298Z,99153.31
2023-02-02T10:23:23.308Z,99159.46
2023-02-02T10:23:59.273Z,99160.39
2023-02-02T10:25:14.208Z,99161.31
2023-02-02T10:25:55.482Z,99161.67
2023-02-02T10:28:17.040Z,99168.30
2023-02-02T10:29:03.182Z,99170.05
2023-02-02T10:29:49.535Z,99168.66
2023-02-02T10:30:28.995Z,99169.52
2023-02-02T10:31:02.337Z,99170.02
2023-02-02T10:31:47.215Z,99171.38
2023-02-02T10:32:27.099Z,99171.67
2023-02-02T10:33:06.610Z,99178.10
2023-02-02T10:34:37.716Z,99175.90
2023-02-02T10:35:25.950Z,99178.75
2023-02-02T10:37:24.021Z,99179.30
2023-02-02T10:38:46.138Z,99180.82
2023-02-02T10:40:17.764Z,99182.59
2023-02-02T10:42:02.445Z,99186.16
2023-02-02T10:43:15.865Z,99189.25
2023-02-02T10:44:01.330Z,99191.48
2023-02-02T10:44:40.453Z,99190.04
2023-02-02T10:45:56.169Z,99194.30
2023-02-02T10:47:26.937Z,99192.55
2023-02-02T10:48:00.100Z,99189.13
2023-02-02T10:48:37.280Z,99197.14
2023-02-02T10:49:15.498Z,99207.27
2023-02-02T10:49:51.756Z,99203.61
2023-02-02T10:50:28.243Z,99200.47
2023-02-02T10:53:38.558Z,99206.94
2023-02-02T10:54:55.805Z,99201.44
2023-02-02T10:55:35.816Z,99204.30
2023-02-02T10:56:11.958Z,99213.03
2023-02-02T10:56:48.924Z,99212.64
2023-02-02T10:58:36.245Z,99214.04
2023-02-02T10:59:21.793Z,99216.49
2023-02-02T11:00:06.161Z,99217.59
2023-02-02T11:01:39.680Z,99220.06
2023-02-02T11:02:51.855Z,99220.02
2023-02-02T11:03:29.484Z,99220.39
2023-02-02T11:04:21.019Z,99217.38
2023-02-02T11:05:12.731Z,99225.92
2023-02-02T11:06:04.754Z,99222.63
2023-02-02T11:06:50.064Z,99230.61
2023-02-02T11:07:23.196Z,99229.48
2023-02-02T11:07:56.164Z,99232.42
2023-02-02T11:08:34.133Z,99232.58
2023-02-02T11:09:09.283Z,99235.16
2023-02-02T11:10:20.660Z,99233.95
2023-02-02T11:11:39.932Z,99232.19
2023-02-02T11:12:21.891Z,99231.86
2023-02-02T11:12:57.068Z,99231.90
2023-02-02T11:14:16.456Z,99244.67
2023-02-02T11:17:43.019Z,99246.13
2023-02-02T11:20:33.515Z,99247.32
2023-02-02T11:22:06.703Z,99252.77
2023-02-02T11:23:59.343Z,99254.91
2023-02-02T11:24:41.020Z,99252.45
2023-02-02T11:25:43.285Z,99255.71
2023-02-02T11:26:16.305Z,99255.89
2023-02-02T11:26:57.279Z,99258.08
2023-02-02T11:29:00.010Z,99264.26
2023-02-02T11:29:37.574Z,99266.00
2023-02-02T11:30:24.507Z,99268.14
2023-02-02T11:30:57.959Z,99269.15
2023-02-02T11:33:39.950Z,99264.02
2023-02-02T11:35:08.857Z,99270.41
2023-02-02T11:35:49.590Z,99279.77
2023-02-02T11:37:20.626Z,99277.09
2023-02-02T11:38:01.380Z,99279.59
2023-02-02T11:40:28.578Z,99284.86
2023-02-02T11:41:07.186Z,99286.54
2023-02-02T11:41:42.206Z,99288.35
2023-02-02T11:42:59.786Z,99285.23
2023-02-02T11:43:51.183Z,99287.91
2023-02-02T11:44:26.276Z,99287.73
2023-02-02T11:44:59.328Z,99288.80
2023-02-02T11:45:36.241Z,99291.21
2023-02-02T11:46:20.664Z,99293.73
2023-02-02T11:46:54.142Z,99294.73
2023-02-02T11:47:31.041Z,99298.38
2023-02-02T11:48:17.938Z,99298.35
2023-02-02T11:51:08.118Z,99299.34
2023-02-02T11:52:20.220Z,99298.04
2023-02-02T11:52:53.082Z,99301.01
2023-02-02T11:55:15.937Z,99301.35
2023-02-02T11:55:48.914Z,99306.77
2023-02-02T11:57:03.856Z,99306.80
2023-02-02T11:57:36.835Z,99313.29
2023-02-02T11:58:25.207Z,99310.17
2023-02-02T12:01:06.392Z,99310.82
2023-02-02T12:03:20.314Z,99320.23
2023-02-02T12:03:58.044Z,99318.38
2023-02-02T12:05:20.844Z,99317.23
2023-02-02T12:06:37.005Z,99327.02
2023-02-02T12:07:20.010Z,99331.25
2023-02-02T12:08:30.969Z,99320.34
2023-02-02T12:09:28.004Z,99331.55
2023-02-02T12:10:02.514Z,99330.25
2023-02-02T12:11:33.243Z,99321.73
2023-02-02T12:12:28.025Z,99333.95
2023-02-02T12:13:09.623Z,99339.52
2023-02-02T12:14:15.040Z,99336.35
2023-02-02T12:15:25.286Z,99338.79